Startpagina
METAR-TAF:

METAR-TAF

Vliegvelden :

Luchthaven Dakar

Dakar, Senegal

breedte: 14-44N, lengte: 017-30W, hoogte: 27 m

Actueel weer

Dit bericht is 20 minuten geleden gemaakt, om 23:00 UTC
Wind 8 kt uit het noorden
Temperatuur 20°C
Vochtigheid 94%
Druk 1012 hPa
Zicht: 8000 m

METAR: GOOY 202300Z 36008KT 8000 NSC 20/19 Q1012

Tijdstip: 23:20 (23:20 UTC)

Verwachting

Dit bericht is 5 uur en het 50 minuten geleden gemaakt, om 17:30 UTC
Verwachting geldig van 20 om 18 UTC tot 21 om 24 UTC
Wind 12 kt uit het noorden
Zicht 10 km of meer
geen wolken onder 1500 m en geen cumulonimbus

TAF: GOOY 201730Z 2018/2124 35012KT CAVOK

Waarnemingen en weersverwachtingen van meer dan 4000 vliegvelden (METAR en TAF).

De beschikbare stations zijn de gele en rode punten op de kaart.

Ga met uw muis naar het station om de naam te zien.

Klik dan om waarnemingen en weersverwachtingen te zien.

kaart wijzigen: klik op de groene knoppen met een zwart kruis om in te zoomen, op de groene knop met een streepje om uit te zoomen of op de groene pijlen voor aangrenzende kaarten.


METAR-TAF: